<?xml version="1.0" encoding="utf-8"?>
<gpx xmlns:xsi="http://www.w3.org/2001/XMLSchema-instance" xmlns:xsd="http://www.w3.org/2001/XMLSchema" version="1.1" creator="Shapelink.com" xmlns="http://www.topografix.com/GPX/1/1" xmlns:gpxtpx="http://www.garmin.com/xmlschemas/TrackPointExtension/v1">
  <metadata>
    <name>Övrigt 1.07 km, 2020-02-13</name>
    <desc></desc>
    <author><name>Marian Moron</name></author> 
    <time>2020-02-13T20:52:31Z</time>
  </metadata>
  <trk>
    <name>Övrigt 1.07 km, 2020-02-13</name>
    <trkseg>
      <trkpt lat="51.230197694243" lon="4.457223600811">
        <ele>270.2</ele>
        <time>2020-02-13T20:52:31Z</time>
      </trkpt>
      <trkpt lat="51.229779437433" lon="4.458194057193">
        <ele>96.6</ele>
        <time>2020-02-13T20:52:34Z</time>
      </trkpt>
      <trkpt lat="51.229911703815" lon="4.458930910022">
        <ele>28</ele>
        <time>2020-02-13T20:52:49Z</time>
      </trkpt>
      <trkpt lat="51.229974316608" lon="4.458989415684">
        <ele>24.2</ele>
        <time>2020-02-13T20:53:12Z</time>
      </trkpt>
      <trkpt lat="51.230441607533" lon="4.458839379674">
        <ele>23.4</ele>
        <time>2020-02-13T20:53:29Z</time>
      </trkpt>
      <trkpt lat="51.230887021699" lon="4.458732594268">
        <ele>24.8</ele>
        <time>2020-02-13T20:53:45Z</time>
      </trkpt>
      <trkpt lat="51.231071423499" lon="4.458659168824">
        <ele>27.8</ele>
        <time>2020-02-13T20:54:04Z</time>
      </trkpt>
      <trkpt lat="51.231198828379" lon="4.458520867474">
        <ele>23.2</ele>
        <time>2020-02-13T20:54:37Z</time>
      </trkpt>
      <trkpt lat="51.231203689881" lon="4.458461104527">
        <ele>22.8</ele>
        <time>2020-02-13T20:54:41Z</time>
      </trkpt>
      <trkpt lat="51.231110315515" lon="4.457763646628">
        <ele>26.8</ele>
        <time>2020-02-13T20:55:19Z</time>
      </trkpt>
      <trkpt lat="51.231198912198" lon="4.457365757835">
        <ele>25.4</ele>
        <time>2020-02-13T20:55:45Z</time>
      </trkpt>
      <trkpt lat="51.231294968772" lon="4.457200047672">
        <ele>24.8</ele>
        <time>2020-02-13T20:56:15Z</time>
      </trkpt>
      <trkpt lat="51.231347355647" lon="4.456713059282">
        <ele>24.4</ele>
        <time>2020-02-13T20:56:45Z</time>
      </trkpt>
      <trkpt lat="51.231264793932" lon="4.456486412706">
        <ele>22</ele>
        <time>2020-02-13T20:57:17Z</time>
      </trkpt>
      <trkpt lat="51.231246269933" lon="4.456431092166">
        <ele>22</ele>
        <time>2020-02-13T20:57:19Z</time>
      </trkpt>
      <trkpt lat="51.231159517268" lon="4.456282564898">
        <ele>22.2</ele>
        <time>2020-02-13T20:57:30Z</time>
      </trkpt>
      <trkpt lat="51.23080730983" lon="4.45625557518">
        <ele>17.4</ele>
        <time>2020-02-13T20:58:00Z</time>
      </trkpt>
      <trkpt lat="51.230635899975" lon="4.456447017776">
        <ele>20.6</ele>
        <time>2020-02-13T20:58:12Z</time>
      </trkpt>
      <trkpt lat="51.230420233688" lon="4.456552545897">
        <ele>19.6</ele>
        <time>2020-02-13T20:58:27Z</time>
      </trkpt>
      <trkpt lat="51.230114042881" lon="4.456655727086">
        <ele>17.6</ele>
        <time>2020-02-13T20:58:43Z</time>
      </trkpt>
      <trkpt lat="51.230090908837" lon="4.456665030995">
        <ele>18</ele>
        <time>2020-02-13T20:58:45Z</time>
      </trkpt>
      <trkpt lat="51.229831489032" lon="4.456732002376">
        <ele>17</ele>
        <time>2020-02-13T20:59:06Z</time>
      </trkpt>
      <trkpt lat="51.229386242504" lon="4.456817916851">
        <ele>12.8</ele>
        <time>2020-02-13T20:59:37Z</time>
      </trkpt>
      <trkpt lat="51.229167474914" lon="4.456911375036">
        <ele>10</ele>
        <time>2020-02-13T21:00:03Z</time>
      </trkpt>
      <trkpt lat="51.228812585268" lon="4.457043306142">
        <ele>15</ele>
        <time>2020-02-13T21:01:05Z</time>
      </trkpt>
      <trkpt lat="51.228386030377" lon="4.45726307956">
        <ele>20.8</ele>
        <time>2020-02-13T21:01:46Z</time>
      </trkpt>
      <trkpt lat="51.228395585743" lon="4.457264253026">
        <ele>20.8</ele>
        <time>2020-02-13T21:01:53Z</time>
      </trkpt>
      <trkpt lat="51.228487954281" lon="4.457182445682">
        <ele>22.4</ele>
        <time>2020-02-13T21:02:05Z</time>
      </trkpt>
      <trkpt lat="51.228501197683" lon="4.457208681029">
        <ele>22.6</ele>
        <time>2020-02-13T21:02:18Z</time>
      </trkpt>
      <trkpt lat="51.228452331206" lon="4.457441027297">
        <ele>17.4</ele>
        <time>2020-02-13T21:02:39Z</time>
      </trkpt>
      <trkpt lat="51.228553333101" lon="4.457617214835">
        <ele>3.2</ele>
        <time>2020-02-13T21:03:05Z</time>
      </trkpt>
      <trkpt lat="51.228684677474" lon="4.458210485717">
        <ele>1.6</ele>
        <time>2020-02-13T21:03:49Z</time>
      </trkpt>
      <trkpt lat="51.228884082875" lon="4.458168995312">
        <ele>9</ele>
        <time>2020-02-13T21:04:18Z</time>
      </trkpt>
      <trkpt lat="51.229125565414" lon="4.458150303675">
        <ele>15.4</ele>
        <time>2020-02-13T21:04:52Z</time>
      </trkpt>
      <trkpt lat="51.229193710261" lon="4.458136808816">
        <ele>16.4</ele>
        <time>2020-02-13T21:04:59Z</time>
      </trkpt>
      <trkpt lat="51.229567878277" lon="4.458057180766">
        <ele>17.2</ele>
        <time>2020-02-13T21:05:41Z</time>
      </trkpt>
      <trkpt lat="51.229852527601" lon="4.457804634119">
        <ele>7.2</ele>
        <time>2020-02-13T21:06:09Z</time>
      </trkpt>
      <trkpt lat="51.229892090169" lon="4.457755600004">
        <ele>4.2</ele>
        <time>2020-02-13T21:06:21Z</time>
      </trkpt>
      <trkpt lat="51.229691846578" lon="4.457927680411">
        <ele>7.4</ele>
        <time>2020-02-13T21:07:56Z</time>
      </trkpt>
      <trkpt lat="51.229678686995" lon="4.457933380103">
        <ele>7.8</ele>
        <time>2020-02-13T21:07:59Z</time>
      </trkpt>
      <trkpt lat="51.229668880172" lon="4.457985096426">
        <ele>8</ele>
        <time>2020-02-13T21:08:08Z</time>
      </trkpt>
    </trkseg>
  </trk>
</gpx>